sensor_id;sensor_type;location;lat;lon;timestamp;P1;durP1;ratioP1;P2;durP2;ratioP2
60372;SDS011;46216;52.220;5.134;2023-03-23T00:01:53;6.63;;;4.53;;
60372;SDS011;46216;52.220;5.134;2023-03-23T00:04:18;6.72;;;4.55;;
60372;SDS011;46216;52.220;5.134;2023-03-23T00:06:44;8.45;;;4.70;;
60372;SDS011;46216;52.220;5.134;2023-03-23T00:09:10;6.45;;;4.25;;
60372;SDS011;46216;52.220;5.134;2023-03-23T00:11:37;7.13;;;3.90;;
60372;SDS011;46216;52.220;5.134;2023-03-23T00:14:04;9.38;;;4.30;;
60372;SDS011;46216;52.220;5.134;2023-03-23T00:16:30;7.82;;;4.40;;
60372;SDS011;46216;52.220;5.134;2023-03-23T00:19:02;7.85;;;4.28;;
60372;SDS011;46216;52.220;5.134;2023-03-23T00:21:31;7.95;;;4.80;;
60372;SDS011;46216;52.220;5.134;2023-03-23T00:24:09;7.40;;;4.47;;
60372;SDS011;46216;52.220;5.134;2023-03-23T00:26:45;8.85;;;4.00;;
60372;SDS011;46216;52.220;5.134;2023-03-23T00:29:14;6.20;;;4.00;;
60372;SDS011;46216;52.220;5.134;2023-03-23T00:31:41;7.05;;;4.03;;
60372;SDS011;46216;52.220;5.134;2023-03-23T00:34:12;6.32;;;4.10;;
60372;SDS011;46216;52.220;5.134;2023-03-23T00:36:54;8.40;;;3.65;;
60372;SDS011;46216;52.220;5.134;2023-03-23T00:39:21;5.20;;;3.70;;
60372;SDS011;46216;52.220;5.134;2023-03-23T00:41:49;6.00;;;3.70;;
60372;SDS011;46216;52.220;5.134;2023-03-23T00:44:15;5.68;;;3.47;;
60372;SDS011;46216;52.220;5.134;2023-03-23T00:46:44;6.22;;;4.00;;
60372;SDS011;46216;52.220;5.134;2023-03-23T00:49:15;6.90;;;3.78;;
60372;SDS011;46216;52.220;5.134;2023-03-23T00:51:42;5.47;;;3.53;;
60372;SDS011;46216;52.220;5.134;2023-03-23T00:54:08;5.60;;;3.80;;
60372;SDS011;46216;52.220;5.134;2023-03-23T00:56:35;6.82;;;3.58;;
60372;SDS011;46216;52.220;5.134;2023-03-23T00:59:01;6.22;;;3.50;;
60372;SDS011;46216;52.220;5.134;2023-03-23T01:01:26;6.05;;;3.72;;
60372;SDS011;46216;52.220;5.134;2023-03-23T01:03:53;6.07;;;3.40;;
60372;SDS011;46216;52.220;5.134;2023-03-23T01:06:25;8.48;;;4.05;;
60372;SDS011;46216;52.220;5.134;2023-03-23T01:08:52;8.00;;;3.45;;
60372;SDS011;46216;52.220;5.134;2023-03-23T01:11:19;7.13;;;3.10;;
60372;SDS011;46216;52.220;5.134;2023-03-23T01:13:45;6.65;;;3.28;;
60372;SDS011;46216;52.220;5.134;2023-03-23T01:16:11;5.22;;;3.28;;
60372;SDS011;46216;52.220;5.134;2023-03-23T01:18:37;7.85;;;3.20;;
60372;SDS011;46216;52.220;5.134;2023-03-23T01:21:06;6.18;;;3.40;;
60372;SDS011;46216;52.220;5.134;2023-03-23T01:23:37;6.00;;;3.35;;
60372;SDS011;46216;52.220;5.134;2023-03-23T01:26:04;5.25;;;2.95;;
60372;SDS011;46216;52.220;5.134;2023-03-23T01:28:30;5.70;;;2.88;;
60372;SDS011;46216;52.220;5.134;2023-03-23T01:30:59;4.43;;;2.90;;
60372;SDS011;46216;52.220;5.134;2023-03-23T01:33:28;5.47;;;3.40;;
60372;SDS011;46216;52.220;5.134;2023-03-23T01:35:54;6.22;;;3.05;;
60372;SDS011;46216;52.220;5.134;2023-03-23T01:38:20;5.38;;;2.80;;
60372;SDS011;46216;52.220;5.134;2023-03-23T01:40:46;6.28;;;2.92;;
60372;SDS011;46216;52.220;5.134;2023-03-23T01:43:12;5.00;;;3.00;;
60372;SDS011;46216;52.220;5.134;2023-03-23T01:45:39;5.03;;;2.88;;
60372;SDS011;46216;52.220;5.134;2023-03-23T01:50:42;3.75;;;2.67;;
60372;SDS011;46216;52.220;5.134;2023-03-23T01:53:12;5.22;;;3.38;;
60372;SDS011;46216;52.220;5.134;2023-03-23T01:55:39;6.50;;;2.67;;
60372;SDS011;46216;52.220;5.134;2023-03-23T01:58:06;3.58;;;2.90;;
60372;SDS011;46216;52.220;5.134;2023-03-23T02:00:33;4.20;;;2.90;;
60372;SDS011;46216;52.220;5.134;2023-03-23T02:03:00;4.75;;;3.10;;
60372;SDS011;46216;52.220;5.134;2023-03-23T02:05:28;5.05;;;2.80;;
60372;SDS011;46216;52.220;5.134;2023-03-23T02:07:58;4.78;;;2.60;;
60372;SDS011;46216;52.220;5.134;2023-03-23T02:10:28;4.43;;;2.88;;
60372;SDS011;46216;52.220;5.134;2023-03-23T02:12:55;6.00;;;2.95;;
60372;SDS011;46216;52.220;5.134;2023-03-23T02:15:20;5.45;;;2.88;;
60372;SDS011;46216;52.220;5.134;2023-03-23T02:18:08;4.45;;;2.58;;
60372;SDS011;46216;52.220;5.134;2023-03-23T02:20:49;5.35;;;3.10;;
60372;SDS011;46216;52.220;5.134;2023-03-23T02:29:13;5.10;;;2.38;;
60372;SDS011;46216;52.220;5.134;2023-03-23T02:34:45;3.97;;;2.80;;
60372;SDS011;46216;52.220;5.134;2023-03-23T02:37:18;5.70;;;2.78;;
60372;SDS011;46216;52.220;5.134;2023-03-23T02:39:50;4.07;;;2.70;;
60372;SDS011;46216;52.220;5.134;2023-03-23T02:42:23;3.90;;;2.60;;
60372;SDS011;46216;52.220;5.134;2023-03-23T02:44:52;3.50;;;2.47;;
60372;SDS011;46216;52.220;5.134;2023-03-23T02:47:20;4.35;;;2.50;;
60372;SDS011;46216;52.220;5.134;2023-03-23T02:49:50;4.63;;;2.55;;
60372;SDS011;46216;52.220;5.134;2023-03-23T02:52:19;4.93;;;2.60;;
60372;SDS011;46216;52.220;5.134;2023-03-23T02:54:48;3.47;;;2.45;;
60372;SDS011;46216;52.220;5.134;2023-03-23T02:57:15;4.00;;;2.40;;
60372;SDS011;46216;52.220;5.134;2023-03-23T02:59:42;3.67;;;2.58;;
60372;SDS011;46216;52.220;5.134;2023-03-23T03:04:59;5.13;;;2.40;;
60372;SDS011;46216;52.220;5.134;2023-03-23T03:08:09;3.40;;;2.40;;
60372;SDS011;46216;52.220;5.134;2023-03-23T03:10:42;3.35;;;2.30;;
60372;SDS011;46216;52.220;5.134;2023-03-23T03:21:35;4.18;;;2.40;;
60372;SDS011;46216;52.220;5.134;2023-03-23T03:24:04;3.90;;;2.10;;
60372;SDS011;46216;52.220;5.134;2023-03-23T03:26:36;5.47;;;2.30;;
60372;SDS011;46216;52.220;5.134;2023-03-23T03:29:06;6.22;;;2.20;;
60372;SDS011;46216;52.220;5.134;2023-03-23T03:31:33;6.28;;;2.10;;
60372;SDS011;46216;52.220;5.134;2023-03-23T03:34:03;5.20;;;1.98;;
60372;SDS011;46216;52.220;5.134;2023-03-23T03:36:30;4.40;;;1.90;;
60372;SDS011;46216;52.220;5.134;2023-03-23T03:39:00;4.47;;;1.88;;
60372;SDS011;46216;52.220;5.134;2023-03-23T03:41:30;4.63;;;1.90;;
60372;SDS011;46216;52.220;5.134;2023-03-23T03:43:55;4.85;;;1.85;;
60372;SDS011;46216;52.220;5.134;2023-03-23T03:46:20;4.43;;;1.98;;
60372;SDS011;46216;52.220;5.134;2023-03-23T03:48:46;4.63;;;2.03;;
60372;SDS011;46216;52.220;5.134;2023-03-23T03:51:11;7.47;;;2.67;;
60372;SDS011;46216;52.220;5.134;2023-03-23T03:53:36;4.78;;;2.13;;
60372;SDS011;46216;52.220;5.134;2023-03-23T03:56:02;8.15;;;2.75;;
60372;SDS011;46216;52.220;5.134;2023-03-23T03:58:27;6.20;;;2.70;;
60372;SDS011;46216;52.220;5.134;2023-03-23T04:00:59;6.80;;;2.65;;
60372;SDS011;46216;52.220;5.134;2023-03-23T04:03:25;7.38;;;2.85;;
60372;SDS011;46216;52.220;5.134;2023-03-23T04:05:52;5.47;;;2.72;;
60372;SDS011;46216;52.220;5.134;2023-03-23T04:08:20;8.35;;;3.10;;
60372;SDS011;46216;52.220;5.134;2023-03-23T04:10:47;9.77;;;3.38;;
60372;SDS011;46216;52.220;5.134;2023-03-23T04:13:13;9.88;;;3.22;;
60372;SDS011;46216;52.220;5.134;2023-03-23T04:15:39;8.50;;;3.28;;
60372;SDS011;46216;52.220;5.134;2023-03-23T04:18:04;10.30;;;3.33;;
60372;SDS011;46216;52.220;5.134;2023-03-23T04:20:30;7.25;;;2.50;;
60372;SDS011;46216;52.220;5.134;2023-03-23T04:22:56;7.15;;;2.38;;
60372;SDS011;46216;52.220;5.134;2023-03-23T04:25:21;5.70;;;2.60;;
60372;SDS011;46216;52.220;5.134;2023-03-23T04:27:47;8.50;;;3.00;;
60372;SDS011;46216;52.220;5.134;2023-03-23T04:30:17;5.95;;;2.85;;
60372;SDS011;46216;52.220;5.134;2023-03-23T04:32:44;4.50;;;2.38;;
60372;SDS011;46216;52.220;5.134;2023-03-23T04:35:10;9.10;;;3.08;;
60372;SDS011;46216;52.220;5.134;2023-03-23T04:37:37;6.60;;;2.67;;
60372;SDS011;46216;52.220;5.134;2023-03-23T04:40:04;10.15;;;2.95;;
60372;SDS011;46216;52.220;5.134;2023-03-23T04:42:39;7.57;;;2.90;;
60372;SDS011;46216;52.220;5.134;2023-03-23T04:45:06;7.38;;;2.85;;
60372;SDS011;46216;52.220;5.134;2023-03-23T04:47:34;8.30;;;2.78;;
60372;SDS011;46216;52.220;5.134;2023-03-23T04:50:09;9.18;;;2.75;;
60372;SDS011;46216;52.220;5.134;2023-03-23T04:52:37;7.93;;;2.45;;
60372;SDS011;46216;52.220;5.134;2023-03-23T04:55:07;10.45;;;2.60;;
60372;SDS011;46216;52.220;5.134;2023-03-23T04:57:34;9.15;;;2.47;;
60372;SDS011;46216;52.220;5.134;2023-03-23T05:00:00;12.82;;;2.88;;
60372;SDS011;46216;52.220;5.134;2023-03-23T05:02:30;9.00;;;2.78;;
60372;SDS011;46216;52.220;5.134;2023-03-23T05:04:56;7.45;;;2.17;;
60372;SDS011;46216;52.220;5.134;2023-03-23T05:07:22;7.88;;;2.70;;
60372;SDS011;46216;52.220;5.134;2023-03-23T05:09:48;12.95;;;2.60;;
60372;SDS011;46216;52.220;5.134;2023-03-23T05:12:14;8.68;;;2.50;;
60372;SDS011;46216;52.220;5.134;2023-03-23T05:14:40;10.20;;;2.60;;
60372;SDS011;46216;52.220;5.134;2023-03-23T05:17:06;10.80;;;2.47;;
60372;SDS011;46216;52.220;5.134;2023-03-23T05:19:32;6.57;;;2.35;;
60372;SDS011;46216;52.220;5.134;2023-03-23T05:21:58;8.25;;;2.63;;
60372;SDS011;46216;52.220;5.134;2023-03-23T05:24:31;6.55;;;2.10;;
60372;SDS011;46216;52.220;5.134;2023-03-23T05:26:58;7.13;;;2.13;;
60372;SDS011;46216;52.220;5.134;2023-03-23T05:29:24;12.82;;;2.40;;
60372;SDS011;46216;52.220;5.134;2023-03-23T05:31:51;10.93;;;2.42;;
60372;SDS011;46216;52.220;5.134;2023-03-23T05:34:18;9.30;;;2.50;;
60372;SDS011;46216;52.220;5.134;2023-03-23T05:36:44;6.80;;;2.22;;
60372;SDS011;46216;52.220;5.134;2023-03-23T05:39:10;8.77;;;2.75;;
60372;SDS011;46216;52.220;5.134;2023-03-23T05:41:39;9.63;;;2.92;;
60372;SDS011;46216;52.220;5.134;2023-03-23T05:44:05;8.68;;;2.45;;
60372;SDS011;46216;52.220;5.134;2023-03-23T05:46:30;10.93;;;3.22;;
60372;SDS011;46216;52.220;5.134;2023-03-23T05:48:55;9.00;;;3.65;;
60372;SDS011;46216;52.220;5.134;2023-03-23T05:51:21;9.85;;;3.78;;
60372;SDS011;46216;52.220;5.134;2023-03-23T05:53:46;11.43;;;4.05;;
60372;SDS011;46216;52.220;5.134;2023-03-23T05:56:13;9.45;;;3.85;;
60372;SDS011;46216;52.220;5.134;2023-03-23T05:58:39;10.45;;;4.40;;
60372;SDS011;46216;52.220;5.134;2023-03-23T06:01:08;10.85;;;4.50;;
60372;SDS011;46216;52.220;5.134;2023-03-23T06:03:33;12.40;;;4.57;;
60372;SDS011;46216;52.220;5.134;2023-03-23T06:06:01;13.23;;;4.68;;
60372;SDS011;46216;52.220;5.134;2023-03-23T06:08:28;11.88;;;4.35;;
60372;SDS011;46216;52.220;5.134;2023-03-23T06:10:53;13.13;;;4.65;;
60372;SDS011;46216;52.220;5.134;2023-03-23T06:13:20;11.25;;;3.80;;
60372;SDS011;46216;52.220;5.134;2023-03-23T06:15:45;10.93;;;3.55;;
60372;SDS011;46216;52.220;5.134;2023-03-23T06:18:12;14.32;;;4.25;;
60372;SDS011;46216;52.220;5.134;2023-03-23T06:20:38;13.15;;;3.75;;
60372;SDS011;46216;52.220;5.134;2023-03-23T06:23:05;13.95;;;3.83;;
60372;SDS011;46216;52.220;5.134;2023-03-23T06:25:31;14.63;;;3.90;;
60372;SDS011;46216;52.220;5.134;2023-03-23T06:27:58;14.20;;;3.60;;
60372;SDS011;46216;52.220;5.134;2023-03-23T06:30:23;13.10;;;4.20;;
60372;SDS011;46216;52.220;5.134;2023-03-23T06:32:50;12.50;;;3.60;;
60372;SDS011;46216;52.220;5.134;2023-03-23T06:35:15;13.02;;;3.28;;
60372;SDS011;46216;52.220;5.134;2023-03-23T06:37:41;14.88;;;4.18;;
60372;SDS011;46216;52.220;5.134;2023-03-23T06:40:07;12.98;;;4.10;;
60372;SDS011;46216;52.220;5.134;2023-03-23T06:42:33;9.25;;;3.85;;
60372;SDS011;46216;52.220;5.134;2023-03-23T06:44:59;13.65;;;4.05;;
60372;SDS011;46216;52.220;5.134;2023-03-23T06:47:29;9.43;;;3.63;;
60372;SDS011;46216;52.220;5.134;2023-03-23T06:49:55;9.57;;;3.97;;
60372;SDS011;46216;52.220;5.134;2023-03-23T06:52:21;10.95;;;3.95;;
60372;SDS011;46216;52.220;5.134;2023-03-23T06:54:48;14.07;;;4.40;;
60372;SDS011;46216;52.220;5.134;2023-03-23T06:57:14;10.30;;;3.88;;
60372;SDS011;46216;52.220;5.134;2023-03-23T06:59:40;13.32;;;4.18;;
60372;SDS011;46216;52.220;5.134;2023-03-23T07:02:07;15.88;;;4.18;;
60372;SDS011;46216;52.220;5.134;2023-03-23T07:04:37;10.98;;;4.20;;
60372;SDS011;46216;52.220;5.134;2023-03-23T07:07:03;14.40;;;4.20;;
60372;SDS011;46216;52.220;5.134;2023-03-23T07:09:30;11.40;;;4.25;;
60372;SDS011;46216;52.220;5.134;2023-03-23T07:11:56;18.10;;;4.85;;
60372;SDS011;46216;52.220;5.134;2023-03-23T07:14:21;14.80;;;4.40;;
60372;SDS011;46216;52.220;5.134;2023-03-23T07:16:47;13.63;;;4.35;;
60372;SDS011;46216;52.220;5.134;2023-03-23T07:19:12;13.55;;;4.30;;
60372;SDS011;46216;52.220;5.134;2023-03-23T07:21:38;16.63;;;4.80;;
60372;SDS011;46216;52.220;5.134;2023-03-23T07:24:03;15.40;;;4.93;;
60372;SDS011;46216;52.220;5.134;2023-03-23T07:26:29;15.38;;;4.38;;
60372;SDS011;46216;52.220;5.134;2023-03-23T07:28:54;12.27;;;4.10;;
60372;SDS011;46216;52.220;5.134;2023-03-23T07:31:19;11.85;;;4.30;;
60372;SDS011;46216;52.220;5.134;2023-03-23T07:33:45;13.10;;;4.45;;
60372;SDS011;46216;52.220;5.134;2023-03-23T07:36:10;14.25;;;3.90;;
60372;SDS011;46216;52.220;5.134;2023-03-23T07:38:37;11.27;;;3.80;;
60372;SDS011;46216;52.220;5.134;2023-03-23T07:41:02;10.82;;;3.35;;
60372;SDS011;46216;52.220;5.134;2023-03-23T07:43:28;13.20;;;3.70;;
60372;SDS011;46216;52.220;5.134;2023-03-23T07:45:56;12.00;;;3.08;;
60372;SDS011;46216;52.220;5.134;2023-03-23T07:48:22;9.48;;;3.15;;
60372;SDS011;46216;52.220;5.134;2023-03-23T07:50:47;7.80;;;2.97;;
60372;SDS011;46216;52.220;5.134;2023-03-23T07:53:12;11.55;;;3.13;;
60372;SDS011;46216;52.220;5.134;2023-03-23T07:55:38;11.75;;;2.97;;
60372;SDS011;46216;52.220;5.134;2023-03-23T07:58:03;8.52;;;2.97;;
60372;SDS011;46216;52.220;5.134;2023-03-23T08:00:28;12.40;;;3.10;;
60372;SDS011;46216;52.220;5.134;2023-03-23T08:02:55;9.38;;;2.78;;
60372;SDS011;46216;52.220;5.134;2023-03-23T08:05:22;10.63;;;3.00;;
60372;SDS011;46216;52.220;5.134;2023-03-23T08:07:48;9.52;;;3.03;;
60372;SDS011;46216;52.220;5.134;2023-03-23T08:10:15;11.23;;;2.90;;
60372;SDS011;46216;52.220;5.134;2023-03-23T08:12:42;12.27;;;3.13;;
60372;SDS011;46216;52.220;5.134;2023-03-23T08:15:09;12.20;;;2.75;;
60372;SDS011;46216;52.220;5.134;2023-03-23T08:17:42;12.65;;;2.45;;
60372;SDS011;46216;52.220;5.134;2023-03-23T08:20:08;9.57;;;2.80;;
60372;SDS011;46216;52.220;5.134;2023-03-23T08:22:38;11.10;;;2.90;;
60372;SDS011;46216;52.220;5.134;2023-03-23T08:25:10;7.75;;;2.50;;
60372;SDS011;46216;52.220;5.134;2023-03-23T08:27:37;8.80;;;2.90;;
60372;SDS011;46216;52.220;5.134;2023-03-23T08:30:03;8.82;;;2.55;;
60372;SDS011;46216;52.220;5.134;2023-03-23T08:32:31;8.55;;;2.80;;
60372;SDS011;46216;52.220;5.134;2023-03-23T08:34:56;9.35;;;2.83;;
60372;SDS011;46216;52.220;5.134;2023-03-23T08:37:22;7.10;;;2.50;;
60372;SDS011;46216;52.220;5.134;2023-03-23T08:39:50;9.40;;;2.95;;
60372;SDS011;46216;52.220;5.134;2023-03-23T08:42:17;11.65;;;2.90;;
60372;SDS011;46216;52.220;5.134;2023-03-23T08:44:43;9.95;;;2.65;;
60372;SDS011;46216;52.220;5.134;2023-03-23T08:47:09;11.43;;;3.13;;
60372;SDS011;46216;52.220;5.134;2023-03-23T08:49:35;9.32;;;2.90;;
60372;SDS011;46216;52.220;5.134;2023-03-23T08:52:00;9.23;;;3.20;;
60372;SDS011;46216;52.220;5.134;2023-03-23T08:54:25;6.70;;;2.70;;
60372;SDS011;46216;52.220;5.134;2023-03-23T08:56:51;9.05;;;3.33;;
60372;SDS011;46216;52.220;5.134;2023-03-23T08:59:17;11.45;;;3.45;;
60372;SDS011;46216;52.220;5.134;2023-03-23T09:01:43;10.20;;;3.03;;
60372;SDS011;46216;52.220;5.134;2023-03-23T09:04:08;9.93;;;2.95;;
60372;SDS011;46216;52.220;5.134;2023-03-23T09:06:35;12.65;;;3.90;;
60372;SDS011;46216;52.220;5.134;2023-03-23T09:09:02;10.90;;;3.25;;
60372;SDS011;46216;52.220;5.134;2023-03-23T09:11:31;9.25;;;3.10;;
60372;SDS011;46216;52.220;5.134;2023-03-23T09:14:01;11.15;;;3.47;;
60372;SDS011;46216;52.220;5.134;2023-03-23T09:16:27;10.93;;;3.53;;
60372;SDS011;46216;52.220;5.134;2023-03-23T09:18:53;14.07;;;3.47;;
60372;SDS011;46216;52.220;5.134;2023-03-23T09:21:20;9.88;;;2.72;;
60372;SDS011;46216;52.220;5.134;2023-03-23T09:23:46;10.02;;;3.00;;
60372;SDS011;46216;52.220;5.134;2023-03-23T09:26:13;12.90;;;3.50;;
60372;SDS011;46216;52.220;5.134;2023-03-23T09:28:39;10.02;;;3.10;;
60372;SDS011;46216;52.220;5.134;2023-03-23T09:31:05;11.25;;;3.20;;
60372;SDS011;46216;52.220;5.134;2023-03-23T09:33:30;10.60;;;3.60;;
60372;SDS011;46216;52.220;5.134;2023-03-23T09:35:59;12.80;;;3.72;;
60372;SDS011;46216;52.220;5.134;2023-03-23T09:38:27;11.38;;;3.53;;
60372;SDS011;46216;52.220;5.134;2023-03-23T09:44:01;11.40;;;3.67;;
60372;SDS011;46216;52.220;5.134;2023-03-23T09:49:07;14.75;;;3.92;;
60372;SDS011;46216;52.220;5.134;2023-03-23T09:51:50;15.57;;;3.90;;
60372;SDS011;46216;52.220;5.134;2023-03-23T09:54:40;13.63;;;3.58;;
60372;SDS011;46216;52.220;5.134;2023-03-23T09:57:15;14.05;;;4.30;;
60372;SDS011;46216;52.220;5.134;2023-03-23T10:05:50;14.02;;;3.47;;
60372;SDS011;46216;52.220;5.134;2023-03-23T10:08:21;13.20;;;3.70;;
60372;SDS011;46216;52.220;5.134;2023-03-23T10:16:42;10.82;;;2.95;;
60372;SDS011;46216;52.220;5.134;2023-03-23T10:19:22;11.27;;;3.10;;
60372;SDS011;46216;52.220;5.134;2023-03-23T10:22:02;16.30;;;3.42;;
60372;SDS011;46216;52.220;5.134;2023-03-23T10:27:27;12.18;;;2.97;;
60372;SDS011;46216;52.220;5.134;2023-03-23T10:29:57;13.50;;;2.78;;
60372;SDS011;46216;52.220;5.134;2023-03-23T10:32:39;14.82;;;3.20;;
60372;SDS011;46216;52.220;5.134;2023-03-23T10:35:19;12.85;;;2.97;;
60372;SDS011;46216;52.220;5.134;2023-03-23T10:37:52;12.25;;;2.63;;
60372;SDS011;46216;52.220;5.134;2023-03-23T10:40:23;14.88;;;3.63;;
60372;SDS011;46216;52.220;5.134;2023-03-23T10:42:51;13.15;;;2.70;;
60372;SDS011;46216;52.220;5.134;2023-03-23T10:45:22;9.85;;;2.85;;
60372;SDS011;46216;52.220;5.134;2023-03-23T10:47:53;12.73;;;2.78;;
60372;SDS011;46216;52.220;5.134;2023-03-23T10:50:22;13.60;;;2.83;;
60372;SDS011;46216;52.220;5.134;2023-03-23T10:52:52;9.57;;;2.85;;
60372;SDS011;46216;52.220;5.134;2023-03-23T10:55:20;11.13;;;2.80;;
60372;SDS011;46216;52.220;5.134;2023-03-23T10:57:59;10.13;;;2.63;;
60372;SDS011;46216;52.220;5.134;2023-03-23T11:00:26;12.73;;;2.75;;
60372;SDS011;46216;52.220;5.134;2023-03-23T11:03:06;11.75;;;2.67;;
60372;SDS011;46216;52.220;5.134;2023-03-23T11:05:53;11.18;;;2.85;;
60372;SDS011;46216;52.220;5.134;2023-03-23T11:08:23;10.93;;;2.97;;
60372;SDS011;46216;52.220;5.134;2023-03-23T11:10:57;12.02;;;2.85;;
60372;SDS011;46216;52.220;5.134;2023-03-23T11:13:32;9.95;;;2.60;;
60372;SDS011;46216;52.220;5.134;2023-03-23T11:15:58;14.40;;;3.13;;
60372;SDS011;46216;52.220;5.134;2023-03-23T11:18:26;11.82;;;2.70;;
60372;SDS011;46216;52.220;5.134;2023-03-23T11:20:52;15.02;;;2.95;;
60372;SDS011;46216;52.220;5.134;2023-03-23T11:23:29;12.95;;;2.83;;
60372;SDS011;46216;52.220;5.134;2023-03-23T11:28:31;11.18;;;2.70;;
60372;SDS011;46216;52.220;5.134;2023-03-23T11:30:59;14.20;;;3.00;;
60372;SDS011;46216;52.220;5.134;2023-03-23T11:33:34;13.27;;;2.85;;
60372;SDS011;46216;52.220;5.134;2023-03-23T11:36:03;9.95;;;2.70;;
60372;SDS011;46216;52.220;5.134;2023-03-23T11:38:31;13.32;;;3.03;;
60372;SDS011;46216;52.220;5.134;2023-03-23T11:40:58;8.95;;;3.00;;
60372;SDS011;46216;52.220;5.134;2023-03-23T11:43:24;10.60;;;2.97;;
60372;SDS011;46216;52.220;5.134;2023-03-23T11:45:56;9.23;;;2.72;;
60372;SDS011;46216;52.220;5.134;2023-03-23T11:48:29;10.25;;;2.67;;
60372;SDS011;46216;52.220;5.134;2023-03-23T11:51:17;14.10;;;2.75;;
60372;SDS011;46216;52.220;5.134;2023-03-23T11:56:35;12.98;;;2.80;;
60372;SDS011;46216;52.220;5.134;2023-03-23T11:59:02;12.18;;;3.03;;
60372;SDS011;46216;52.220;5.134;2023-03-23T12:01:51;15.80;;;2.90;;
60372;SDS011;46216;52.220;5.134;2023-03-23T12:07:53;9.77;;;2.60;;
60372;SDS011;46216;52.220;5.134;2023-03-23T12:10:52;9.63;;;2.90;;
60372;SDS011;46216;52.220;5.134;2023-03-23T12:13:34;9.25;;;2.60;;
60372;SDS011;46216;52.220;5.134;2023-03-23T12:16:23;10.38;;;2.83;;
60372;SDS011;46216;52.220;5.134;2023-03-23T12:19:15;13.93;;;3.38;;
60372;SDS011;46216;52.220;5.134;2023-03-23T12:25:36;8.43;;;2.60;;
60372;SDS011;46216;52.220;5.134;2023-03-23T12:28:09;10.40;;;2.20;;
60372;SDS011;46216;52.220;5.134;2023-03-23T12:42:06;9.85;;;2.83;;
60372;SDS011;46216;52.220;5.134;2023-03-23T12:44:35;10.50;;;2.60;;
60372;SDS011;46216;52.220;5.134;2023-03-23T12:49:47;8.63;;;1.90;;
60372;SDS011;46216;52.220;5.134;2023-03-23T12:52:53;10.75;;;2.15;;
60372;SDS011;46216;52.220;5.134;2023-03-23T12:55:16;7.60;;;2.03;;
60372;SDS011;46216;52.220;5.134;2023-03-23T12:57:55;8.35;;;2.33;;
60372;SDS011;46216;52.220;5.134;2023-03-23T13:06:06;8.63;;;2.40;;
60372;SDS011;46216;52.220;5.134;2023-03-23T13:08:44;8.10;;;2.25;;
60372;SDS011;46216;52.220;5.134;2023-03-23T13:11:20;9.32;;;2.10;;
60372;SDS011;46216;52.220;5.134;2023-03-23T13:13:56;8.75;;;2.03;;
60372;SDS011;46216;52.220;5.134;2023-03-23T13:19:16;8.57;;;2.35;;
60372;SDS011;46216;52.220;5.134;2023-03-23T13:21:54;9.48;;;2.35;;
60372;SDS011;46216;52.220;5.134;2023-03-23T13:24:28;11.23;;;2.60;;
60372;SDS011;46216;52.220;5.134;2023-03-23T13:26:56;10.68;;;2.70;;
60372;SDS011;46216;52.220;5.134;2023-03-23T13:29:23;11.02;;;2.50;;
60372;SDS011;46216;52.220;5.134;2023-03-23T13:31:50;10.82;;;2.80;;
60372;SDS011;46216;52.220;5.134;2023-03-23T13:36:51;8.35;;;2.40;;
60372;SDS011;46216;52.220;5.134;2023-03-23T13:44:41;5.80;;;1.88;;
60372;SDS011;46216;52.220;5.134;2023-03-23T13:49:52;8.02;;;2.30;;
60372;SDS011;46216;52.220;5.134;2023-03-23T13:52:23;5.53;;;2.13;;
60372;SDS011;46216;52.220;5.134;2023-03-23T13:57:53;12.05;;;2.25;;
60372;SDS011;46216;52.220;5.134;2023-03-23T14:03:19;6.55;;;2.70;;
60372;SDS011;46216;52.220;5.134;2023-03-23T14:05:51;10.32;;;2.72;;
60372;SDS011;46216;52.220;5.134;2023-03-23T14:13:31;9.07;;;2.70;;
60372;SDS011;46216;52.220;5.134;2023-03-23T14:16:03;10.88;;;2.85;;
60372;SDS011;46216;52.220;5.134;2023-03-23T14:18:37;10.43;;;2.70;;
60372;SDS011;46216;52.220;5.134;2023-03-23T14:21:04;12.43;;;2.90;;
60372;SDS011;46216;52.220;5.134;2023-03-23T14:23:32;9.85;;;3.05;;
60372;SDS011;46216;52.220;5.134;2023-03-23T14:26:00;12.85;;;2.88;;
60372;SDS011;46216;52.220;5.134;2023-03-23T14:28:32;10.88;;;2.70;;
60372;SDS011;46216;52.220;5.134;2023-03-23T14:31:02;10.35;;;2.60;;
60372;SDS011;46216;52.220;5.134;2023-03-23T14:33:28;11.18;;;3.00;;
60372;SDS011;46216;52.220;5.134;2023-03-23T14:35:54;9.10;;;2.30;;
60372;SDS011;46216;52.220;5.134;2023-03-23T14:38:23;7.57;;;2.33;;
60372;SDS011;46216;52.220;5.134;2023-03-23T14:40:53;9.50;;;2.85;;
60372;SDS011;46216;52.220;5.134;2023-03-23T14:43:19;12.20;;;2.45;;
60372;SDS011;46216;52.220;5.134;2023-03-23T14:45:49;10.65;;;2.58;;
60372;SDS011;46216;52.220;5.134;2023-03-23T14:48:19;10.15;;;2.47;;
60372;SDS011;46216;52.220;5.134;2023-03-23T14:50:55;12.13;;;2.80;;
60372;SDS011;46216;52.220;5.134;2023-03-23T14:55:59;8.90;;;2.60;;
60372;SDS011;46216;52.220;5.134;2023-03-23T14:58:27;7.35;;;2.00;;
60372;SDS011;46216;52.220;5.134;2023-03-23T15:03:44;9.02;;;2.72;;
60372;SDS011;46216;52.220;5.134;2023-03-23T15:06:17;9.77;;;2.35;;
60372;SDS011;46216;52.220;5.134;2023-03-23T15:08:44;9.52;;;2.90;;
60372;SDS011;46216;52.220;5.134;2023-03-23T15:13:46;9.05;;;2.90;;
60372;SDS011;46216;52.220;5.134;2023-03-23T15:18:59;10.60;;;2.40;;
60372;SDS011;46216;52.220;5.134;2023-03-23T15:21:33;8.98;;;2.42;;
60372;SDS011;46216;52.220;5.134;2023-03-23T15:24:00;8.32;;;2.33;;
60372;SDS011;46216;52.220;5.134;2023-03-23T15:26:28;10.13;;;2.35;;
60372;SDS011;46216;52.220;5.134;2023-03-23T15:31:33;8.48;;;2.45;;
60372;SDS011;46216;52.220;5.134;2023-03-23T15:34:02;10.18;;;2.40;;
60372;SDS011;46216;52.220;5.134;2023-03-23T15:36:31;12.38;;;3.15;;
60372;SDS011;46216;52.220;5.134;2023-03-23T15:38:58;8.50;;;2.50;;
60372;SDS011;46216;52.220;5.134;2023-03-23T15:41:30;9.98;;;2.42;;
60372;SDS011;46216;52.220;5.134;2023-03-23T15:43:58;10.55;;;2.53;;
60372;SDS011;46216;52.220;5.134;2023-03-23T15:46:36;9.02;;;2.80;;
60372;SDS011;46216;52.220;5.134;2023-03-23T15:49:13;9.13;;;2.38;;
60372;SDS011;46216;52.220;5.134;2023-03-23T15:51:40;9.30;;;2.38;;
60372;SDS011;46216;52.220;5.134;2023-03-23T15:54:08;8.10;;;2.33;;
60372;SDS011;46216;52.220;5.134;2023-03-23T15:56:37;10.15;;;2.47;;
60372;SDS011;46216;52.220;5.134;2023-03-23T15:59:04;8.85;;;2.70;;
60372;SDS011;46216;52.220;5.134;2023-03-23T16:01:29;11.02;;;3.15;;
60372;SDS011;46216;52.220;5.134;2023-03-23T16:04:04;9.85;;;2.90;;
60372;SDS011;46216;52.220;5.134;2023-03-23T16:06:32;9.15;;;2.30;;
60372;SDS011;46216;52.220;5.134;2023-03-23T16:08:59;7.15;;;2.33;;
60372;SDS011;46216;52.220;5.134;2023-03-23T16:11:28;10.27;;;3.00;;
60372;SDS011;46216;52.220;5.134;2023-03-23T16:13:55;10.50;;;2.78;;
60372;SDS011;46216;52.220;5.134;2023-03-23T16:16:22;8.23;;;2.30;;
60372;SDS011;46216;52.220;5.134;2023-03-23T16:18:51;7.95;;;2.38;;
60372;SDS011;46216;52.220;5.134;2023-03-23T16:21:18;6.65;;;2.55;;
60372;SDS011;46216;52.220;5.134;2023-03-23T16:23:43;10.52;;;2.55;;
60372;SDS011;46216;52.220;5.134;2023-03-23T16:26:10;9.57;;;2.30;;
60372;SDS011;46216;52.220;5.134;2023-03-23T16:28:36;10.32;;;2.55;;
60372;SDS011;46216;52.220;5.134;2023-03-23T16:31:01;8.65;;;2.30;;
60372;SDS011;46216;52.220;5.134;2023-03-23T16:33:27;9.48;;;2.75;;
60372;SDS011;46216;52.220;5.134;2023-03-23T16:35:52;13.05;;;3.00;;
60372;SDS011;46216;52.220;5.134;2023-03-23T16:38:17;8.43;;;2.28;;
60372;SDS011;46216;52.220;5.134;2023-03-23T16:40:43;8.48;;;2.72;;
60372;SDS011;46216;52.220;5.134;2023-03-23T16:43:11;10.18;;;2.60;;
60372;SDS011;46216;52.220;5.134;2023-03-23T16:45:38;11.48;;;2.63;;
60372;SDS011;46216;52.220;5.134;2023-03-23T16:48:05;8.45;;;2.42;;